Forrester Center, West Virginia
Current Conditions -  °F | °C
As of 10:53 AM on Sunday 21 Dec 2014 (Local Time) from KMRB Reporting Station
Overcast Overcast  
Wind Chill: 35°   Ceiling: 7000
Heat Index: 35°   Visibility: 7mi
Dew Point: 22°   Wind: 0mph
Humidity: 59%   Direction: NA
Pressure: 30.35"   Gusts: NA
Location:  39.3053°N, 77.8555°W
Report Text: KMRB 211553Z 00000KT 7SM OVC070 02/M06 A3035 RMK AO2 SLP281 T00171056
Loading
Personal Weather Stations






























Interactive Weather Map New forecast layout! Learn more

10-Day Weather Forecast

Advertisements
Track Severe Weather on mobile